Time;durP1;ratioP1;P1;durP2;ratioP2;P2;SDS_P1;SDS_P2;PMS_P1;PMS_P2;Temp;Humidity;BMP_temperature;BMP_pressure;BME280_temperature;BME280_humidity;BME280_pressure;Samples;Min_cycle;Max_cycle;Signal;HPM_P1;HPM_P2
2022/05/09 00:00:15;;;;;;;10.43;9.50;;;;;;;12.74;100.00;100063.09;4804720;29;20249;-78
2022/05/09 00:02:42;;;;;;;10.10;9.30;;;;;;;12.72;100.00;100065.19;4804281;29;20735;-78
2022/05/09 00:05:13;;;;;;;10.73;9.83;;;;;;;12.74;100.00;100063.09;4804529;29;20257;-78
2022/05/09 00:07:40;;;;;;;11.00;10.10;;;;;;;12.70;100.00;100056.53;4804687;29;20191;-78
2022/05/09 00:10:07;;;;;;;11.03;10.03;;;;;;;12.70;100.00;100061.91;4804619;29;20693;-78
2022/05/09 00:12:34;;;;;;;10.70;9.80;;;;;;;12.67;100.00;100054.28;4804986;29;20283;-78
2022/05/09 00:15:01;;;;;;;10.10;9.10;;;;;;;12.68;100.00;100058.63;4804393;29;20220;-78
2022/05/09 00:17:28;;;;;;;11.20;10.20;;;;;;;12.66;100.00;100058.00;4804078;29;20236;-79
2022/05/09 00:19:55;;;;;;;11.17;10.17;;;;;;;12.67;100.00;100059.66;4804027;29;20226;-78
2022/05/09 00:22:22;;;;;;;10.97;10.07;;;;;;;12.65;100.00;100053.69;4811870;29;20230;-78
2022/05/09 00:24:49;;;;;;;10.70;9.80;;;;;;;12.63;100.00;100061.16;4822866;29;20234;-78
2022/05/09 00:27:16;;;;;;;10.60;9.70;;;;;;;12.61;100.00;100060.53;4822188;29;20227;-77
2022/05/09 00:29:43;;;;;;;10.37;9.47;;;;;;;12.59;100.00;100058.09;4822398;29;20202;-78
2022/05/09 00:32:10;;;;;;;11.03;10.13;;;;;;;12.57;100.00;100064.72;4822186;29;20196;-77
2022/05/09 00:34:37;;;;;;;10.80;9.90;;;;;;;12.57;100.00;100064.72;4805720;29;20566;-79
2022/05/09 00:37:05;;;;;;;10.90;9.90;;;;;;;12.55;100.00;100070.31;4822248;29;20227;-78
2022/05/09 00:39:35;;;;;;;11.13;10.03;;;;;;;12.53;100.00;100064.34;4822039;29;20265;-78
2022/05/09 00:42:13;;;;;;;10.93;10.03;;;;;;;12.48;100.00;100058.81;4805773;29;20184;-78
2022/05/09 00:44:41;;;;;;;10.70;9.80;;;;;;;12.48;100.00;100066.06;4822525;29;20260;-79
2022/05/09 00:47:08;;;;;;;11.07;10.07;;;;;;;12.46;100.00;100060.88;4822176;29;20268;-78
2022/05/09 00:49:47;;;;;;;10.93;9.83;;;;;;;12.43;100.00;100060.53;4822281;29;20224;-78
2022/05/09 00:52:22;;;;;;;10.90;9.93;;;;;;;12.39;100.00;100057.47;4791660;29;20281;-78
2022/05/09 00:54:54;;;;;;;10.77;9.87;;;;;;;12.35;100.00;100064.31;4806374;29;20741;-79
2022/05/09 00:57:28;;;;;;;11.40;10.50;;;;;;;12.29;100.00;100059.81;4806099;29;20206;-78
2022/05/09 00:59:58;;;;;;;11.53;10.43;;;;;;;12.27;100.00;100069.97;4805698;29;20181;-79
2022/05/09 01:02:26;;;;;;;11.03;10.03;;;;;;;12.22;100.00;100069.81;4805485;29;20188;-78
2022/05/09 01:04:56;;;;;;;11.10;10.23;;;;;;;12.18;100.00;100065.91;4822117;29;20219;-78
2022/05/09 01:07:24;;;;;;;10.70;9.70;;;;;;;12.15;100.00;100072.53;4822078;29;20256;-78
2022/05/09 01:09:51;;;;;;;11.43;10.43;;;;;;;12.10;100.00;100071.53;4821821;29;20259;-79
2022/05/09 01:12:22;;;;;;;10.63;9.73;;;;;;;12.06;100.00;100071.16;4805691;29;20676;-78
2022/05/09 01:14:49;;;;;;;11.70;10.60;;;;;;;12.00;100.00;100069.34;4822709;29;20198;-78
2022/05/09 01:17:16;;;;;;;10.83;9.93;;;;;;;11.95;100.00;100069.19;4824632;29;20218;-79
2022/05/09 01:19:45;;;;;;;11.10;10.13;;;;;;;11.90;100.00;100079.75;4808517;29;20199;-78
2022/05/09 01:22:26;;;;;;;11.03;10.13;;;;;;;11.83;100.00;100070.94;4824495;29;20235;-78
2022/05/09 01:24:55;;;;;;;11.20;10.13;;;;;;;11.79;100.00;100075.91;4824691;29;20562;-78
2022/05/09 01:27:22;;;;;;;10.80;9.80;;;;;;;11.73;100.00;100065.22;4808254;29;20202;-78
2022/05/09 01:29:53;;;;;;;12.20;11.10;;;;;;;11.69;100.00;100074.69;4824484;29;20218;-77
2022/05/09 01:32:28;;;;;;;12.73;11.60;;;;;;;11.67;100.00;100082.13;4824406;29;20216;-78
2022/05/09 01:35:07;;;;;;;11.30;10.23;;;;;;;11.58;100.00;100078.88;4808273;29;20193;-77
2022/05/09 01:37:34;;;;;;;11.53;10.53;;;;;;;11.52;100.00;100081.63;4807925;29;20259;-78
2022/05/09 01:40:02;;;;;;;11.20;10.30;;;;;;;11.40;100.00;100082.28;4793458;29;20269;-78
2022/05/09 01:42:30;;;;;;;11.37;10.23;;;;;;;11.33;100.00;100078.81;4808129;29;20222;-78
2022/05/09 01:44:56;;;;;;;11.53;10.57;;;;;;;11.26;100.00;100075.34;4824280;29;20665;-77
2022/05/09 01:50:10;;;;;;;11.97;10.97;;;;;;;11.17;100.00;100086.50;4824190;29;20246;-78
2022/05/09 01:52:39;;;;;;;11.67;10.67;;;;;;;11.12;100.00;100083.63;4824237;29;20228;-78
2022/05/09 01:55:05;;;;;;;11.87;10.87;;;;;;;11.03;100.00;100081.22;4807835;29;20202;-78
2022/05/09 01:57:32;;;;;;;11.57;10.57;;;;;;;11.02;100.00;100082.22;4824098;29;20758;-78
2022/05/09 01:59:59;;;;;;;11.70;10.67;;;;;;;10.97;100.00;100090.09;4824022;29;20270;-78
2022/05/09 02:02:26;;;;;;;11.67;10.57;;;;;;;10.91;100.00;100090.94;4824015;29;20194;-78
2022/05/09 02:04:53;;;;;;;12.30;11.20;;;;;;;10.88;100.00;100083.31;4824300;29;20198;-77
2022/05/09 02:07:23;;;;;;;12.67;11.40;;;;;;;10.90;100.00;100093.81;4824172;29;20226;-78
2022/05/09 02:09:50;;;;;;;12.80;11.50;;;;;;;10.86;100.00;100082.72;4823794;29;20199;-78
2022/05/09 02:12:17;;;;;;;12.47;11.33;;;;;;;10.86;100.00;100093.44;4823856;29;20229;-78
2022/05/09 02:14:45;;;;;;;12.20;11.10;;;;;;;10.87;100.00;100086.22;4807286;29;20218;-78
2022/05/09 02:17:12;;;;;;;11.97;11.07;;;;;;;10.81;100.00;100087.03;4808433;29;20304;-78
2022/05/09 02:19:40;;;;;;;12.70;11.60;;;;;;;10.84;100.00;100094.66;4808575;29;20545;-77
2022/05/09 02:22:08;;;;;;;12.50;11.40;;;;;;;10.84;100.00;100092.81;4824527;29;20282;-78
2022/05/09 02:24:36;;;;;;;12.20;11.20;;;;;;;10.81;100.00;100098.59;4808649;29;20719;-78
2022/05/09 02:27:03;;;;;;;12.33;11.13;;;;;;;10.84;100.00;100094.66;4807644;29;20236;-78
2022/05/09 02:29:31;;;;;;;12.13;11.03;;;;;;;10.85;100.00;100097.13;4824124;29;20276;-78
2022/05/09 02:31:59;;;;;;;12.47;11.40;;;;;;;10.87;100.00;100094.25;4824272;29;20269;-78
2022/05/09 02:34:27;;;;;;;12.10;11.00;;;;;;;10.85;100.00;100097.13;4824111;29;20201;-78
2022/05/09 02:36:54;;;;;;;13.13;11.93;;;;;;;10.87;100.00;100095.06;4823684;29;20282;-77
2022/05/09 02:39:21;;;;;;;11.87;10.90;;;;;;;10.86;100.00;100092.59;4824019;29;20237;-78
2022/05/09 02:41:48;;;;;;;12.63;11.43;;;;;;;10.88;100.00;100093.19;4824155;29;20225;-78
2022/05/09 02:44:15;;;;;;;14.30;10.90;;;;;;;10.88;100.00;100094.03;4823804;29;20237;-78
2022/05/09 02:46:44;;;;;;;12.30;11.10;;;;;;;10.86;100.00;100095.28;4823987;29;20194;-77
2022/05/09 02:49:11;;;;;;;12.10;11.10;;;;;;;10.86;100.00;100096.13;4823754;29;20262;-78
2022/05/09 02:51:38;;;;;;;12.17;11.17;;;;;;;10.85;100.00;100091.78;4823729;29;20198;-78
2022/05/09 02:54:05;;;;;;;12.27;11.17;;;;;;;10.87;100.00;100097.75;4823997;29;20270;-78
2022/05/09 02:56:32;;;;;;;11.90;10.90;;;;;;;10.86;100.00;100095.28;4823747;29;20244;-78
2022/05/09 02:58:58;;;;;;;12.53;11.33;;;;;;;10.85;100.00;100090.94;4823720;29;20267;-78
2022/05/09 03:01:25;;;;;;;11.90;10.90;;;;;;;10.87;100.00;100092.38;4822973;29;20703;-78
2022/05/09 03:06:38;;;;;;;12.30;11.30;;;;;;;10.91;100.00;100092.81;4823595;29;20189;-78
2022/05/09 03:09:05;;;;;;;12.60;11.40;;;;;;;10.94;100.00;100097.72;4823559;29;20194;-78
2022/05/09 03:11:32;;;;;;;12.37;11.13;;;;;;;10.93;100.00;100098.75;4823336;29;20670;-77
2022/05/09 03:13:59;;;;;;;12.30;11.10;;;;;;;10.94;100.00;100098.56;4823398;29;20218;-78
2022/05/09 03:16:26;;;;;;;11.43;10.40;;;;;;;10.94;100.00;100101.25;4823136;29;20217;-78
2022/05/09 03:18:53;;;;;;;12.30;11.30;;;;;;;10.92;100.00;100102.47;4823744;29;20197;-78
2022/05/09 03:21:20;;;;;;;12.53;11.53;;;;;;;10.95;100.00;100102.91;4822982;29;20785;-78
2022/05/09 03:23:47;;;;;;;12.67;11.47;;;;;;;10.93;100.00;100104.94;4823412;29;20221;-77
2022/05/09 03:26:13;;;;;;;12.27;11.27;;;;;;;10.96;100.00;100103.72;4822813;29;20278;-80
2022/05/09 03:28:44;;;;;;;12.47;11.37;;;;;;;10.99;100.00;100111.34;4823593;29;20193;-78
2022/05/09 03:31:13;;;;;;;12.10;11.10;;;;;;;11.00;100.00;100107.63;4807286;29;20194;-78
2022/05/09 03:33:40;;;;;;;12.50;11.50;;;;;;;11.01;100.00;100110.06;4823234;29;20210;-78
2022/05/09 03:36:07;;;;;;;12.57;11.37;;;;;;;11.02;100.00;100110.91;4823228;29;20251;-78
2022/05/09 03:38:34;;;;;;;13.00;11.80;;;;;;;11.04;100.00;100115.03;4822535;29;20270;-78
2022/05/09 03:41:02;;;;;;;12.50;11.37;;;;;;;11.13;100.00;100128.19;4823158;29;20205;-78
2022/05/09 03:43:29;;;;;;;12.97;11.77;;;;;;;11.16;100.00;100123.22;4822981;29;20198;-78
2022/05/09 03:45:56;;;;;;;12.50;11.50;;;;;;;11.22;100.00;100127.75;4822853;29;20247;-78
2022/05/09 03:48:22;;;;;;;12.27;11.20;;;;;;;11.22;100.00;100127.75;4822857;29;20198;-79
2022/05/09 03:50:49;;;;;;;13.00;11.90;;;;;;;11.26;100.00;100131.66;4822901;29;20226;-78
2022/05/09 03:53:16;;;;;;;13.00;11.80;;;;;;;11.31;100.00;100134.53;4822664;29;20225;-78
2022/05/09 03:55:43;;;;;;;12.20;11.10;;;;;;;11.34;100.00;100135.97;4822839;29;20217;-78
2022/05/09 03:58:10;;;;;;;13.00;11.83;;;;;;;11.38;100.00;100138.00;4822565;29;20321;-77
2022/05/09 04:00:37;;;;;;;12.43;11.43;;;;;;;11.44;100.00;100142.53;4806485;29;20194;-78
2022/05/09 04:03:05;;;;;;;12.97;11.87;;;;;;;11.47;100.00;100146.66;4822270;29;20218;-77
2022/05/09 04:05:33;;;;;;;12.50;11.50;;;;;;;11.52;100.00;100144.16;4806922;29;20274;-79
2022/05/09 04:08:03;;;;;;;13.30;12.20;;;;;;;11.59;100.00;100142.25;4806520;29;20233;-77
2022/05/09 04:10:31;;;;;;;13.10;12.00;;;;;;;11.66;100.00;100147.59;4822580;29;20198;-78
2022/05/09 04:12:59;;;;;;;12.77;11.47;;;;;;;11.75;100.00;100154.41;4806529;29;20207;-78
2022/05/09 04:18:13;;;;;;;12.57;11.47;;;;;;;11.87;100.00;100156.19;4809079;29;20221;-78
2022/05/09 04:20:40;;;;;;;12.03;10.83;;;;;;;11.92;100.00;100144.81;4822579;29;20228;-77
2022/05/09 04:23:07;;;;;;;11.87;10.80;;;;;;;12.00;100.00;100155.28;4822719;29;20235;-78
2022/05/09 04:25:34;;;;;;;12.67;11.57;;;;;;;12.10;100.00;100157.50;4822384;29;20280;-78
2022/05/09 04:28:03;;;;;;;11.90;10.80;;;;;;;12.23;100.00;100152.84;4806300;29;20210;-78
2022/05/09 04:30:32;;;;;;;11.40;10.37;;;;;;;12.41;100.00;100162.03;4822267;29;20609;-77
2022/05/09 04:32:58;;;;;;;11.40;10.40;;;;;;;12.52;100.00;100159.47;4806413;29;20222;-78
2022/05/09 04:35:25;;;;;;;11.70;10.70;;;;;;;12.66;100.00;100162.84;4822054;29;20231;-78
2022/05/09 04:37:53;;;;;;;11.67;10.70;;;;;;;12.76;100.00;100165.88;4821492;29;20243;-79
2022/05/09 04:40:28;;;;;;;13.20;12.07;;;;;;;12.87;100.00;100167.84;4806040;29;20195;-78
2022/05/09 04:42:59;;;;;;;12.13;11.03;;;;;;;12.97;100.00;100167.34;4822264;29;20239;-77
2022/05/09 04:45:27;;;;;;;12.57;11.40;;;;;;;13.09;100.00;100168.25;4822466;29;20239;-78
2022/05/09 04:47:55;;;;;;;11.57;10.67;;;;;;;13.20;100.00;100167.56;4805761;29;20194;-78
2022/05/09 04:50:24;;;;;;;11.87;10.87;;;;;;;13.30;100.00;100175.91;4821879;29;20196;-78
2022/05/09 04:52:51;;;;;;;11.77;10.77;;;;;;;13.41;100.00;100175.16;4805575;29;20895;-77
2022/05/09 04:55:18;;;;;;;11.53;10.47;;;;;;;13.54;100.00;100175.00;4821895;29;20253;-78
2022/05/09 04:57:48;;;;;;;11.57;10.57;;;;;;;13.65;100.00;100182.34;4805665;29;20220;-78
2022/05/09 05:00:19;;;;;;;11.83;10.73;;;;;;;13.76;100.00;100175.38;4822143;29;20265;-77
2022/05/09 05:02:46;;;;;;;12.13;11.13;;;;;;;13.88;100.00;100184.31;4805206;29;20208;-78
2022/05/09 05:05:13;;;;;;;10.63;9.60;;;;;;;14.00;100.00;100185.16;4821653;29;20192;-78
2022/05/09 05:07:40;;;;;;;11.17;10.27;;;;;;;14.13;100.00;100186.88;4821680;29;20207;-78
2022/05/09 05:10:08;;;;;;;11.93;10.77;;;;;;;14.29;100.00;100186.22;4821692;29;20621;-78
2022/05/09 05:12:35;;;;;;;11.67;10.63;;;;;;;14.43;100.00;100192.25;4821517;29;20215;-77
2022/05/09 05:15:03;;;;;;;11.97;10.97;;;;;;;14.57;100.00;100191.00;4821182;29;20302;-79
2022/05/09 05:17:30;;;;;;;12.00;10.83;;;;;;;14.69;100.00;100191.03;4820850;29;20629;-77
2022/05/09 05:19:56;;;;;;;11.83;10.77;;;;;;;14.85;100.00;100191.16;4821272;29;20185;-78
2022/05/09 05:22:23;;;;;;;12.57;11.37;;;;;;;14.93;100.00;100193.50;4821161;29;20430;-78
2022/05/09 05:24:53;;;;;;;11.93;10.90;;;;;;;15.10;100.00;100196.31;4821122;29;20271;-77
2022/05/09 05:27:22;;;;;;;11.57;10.37;;;;;;;15.26;100.00;100198.28;4820319;29;20178;-78
2022/05/09 05:29:50;;;;;;;11.03;10.13;;;;;;;15.42;100.00;100202.16;4821439;29;20207;-79
2022/05/09 05:32:22;;;;;;;12.00;10.80;;;;;;;15.59;100.00;100199.56;4820778;29;20189;-78
2022/05/09 05:34:49;;;;;;;11.60;10.67;;;;;;;15.71;100.00;100208.47;4821173;29;20209;-78
2022/05/09 05:37:17;;;;;;;11.90;10.67;;;;;;;15.89;100.00;100212.88;4804193;29;20252;-78
2022/05/09 05:39:44;;;;;;;11.83;10.83;;;;;;;16.03;100.00;100208.84;4804599;29;20201;-78
2022/05/09 05:42:12;;;;;;;11.53;10.50;;;;;;;16.15;100.00;100213.13;4819885;29;20221;-77
2022/05/09 05:44:38;;;;;;;11.47;10.37;;;;;;;16.28;100.00;100206.63;4820693;29;20666;-78
2022/05/09 05:47:11;;;;;;;12.07;11.07;;;;;;;16.41;100.00;100203.59;4821015;29;20655;-78
2022/05/09 05:49:39;;;;;;;12.00;11.07;;;;;;;16.53;100.00;100208.94;4820586;29;20208;-78
2022/05/09 05:52:07;;;;;;;11.87;10.77;;;;;;;16.72;100.00;100213.09;4819828;29;20220;-78
2022/05/09 05:54:36;;;;;;;12.00;10.90;;;;;;;16.84;100.00;100207.59;4818329;29;20202;-77
2022/05/09 05:57:04;;;;;;;11.30;10.30;;;;;;;16.99;100.00;100218.66;4820495;29;20221;-78
2022/05/09 05:59:31;;;;;;;11.43;10.53;;;;;;;17.09;100.00;100221.50;4820623;29;20198;-78
2022/05/09 06:01:59;;;;;;;11.50;10.40;;;;;;;17.29;100.00;100224.53;4819915;29;20557;-77
2022/05/09 06:04:28;;;;;;;11.60;10.60;;;;;;;17.46;100.00;100219.06;4820815;29;20620;-78
2022/05/09 06:06:55;;;;;;;11.70;10.70;;;;;;;17.66;100.00;100223.97;4820364;29;20217;-78
2022/05/09 06:09:22;;;;;;;11.87;10.83;;;;;;;17.70;100.00;100230.53;4820399;29;20236;-78
2022/05/09 06:11:49;;;;;;;12.10;11.00;;;;;;;17.83;100.00;100233.69;4804290;29;20289;-78
2022/05/09 06:14:15;;;;;;;12.97;11.87;;;;;;;17.99;100.00;100232.81;4820577;29;20221;-77
2022/05/09 06:16:43;;;;;;;12.43;11.27;;;;;;;18.18;100.00;100232.47;4803697;29;20218;-78
2022/05/09 06:19:10;;;;;;;12.07;11.07;;;;;;;18.27;100.00;100228.22;4820549;29;20210;-79
2022/05/09 06:21:37;;;;;;;12.57;11.50;;;;;;;18.46;100.00;100229.50;4819852;29;20190;-78
2022/05/09 06:24:05;;;;;;;12.73;11.63;;;;;;;18.58;100.00;100235.59;4804485;29;20217;-78
2022/05/09 06:26:34;;;;;;;11.93;10.93;;;;;;;18.79;100.00;100226.59;4789233;29;20214;-78
2022/05/09 06:29:06;;;;;;;12.90;11.80;;;;;;;18.90;100.00;100230.19;4804293;29;20216;-78
2022/05/09 06:31:34;;;;;;;12.03;10.93;;;;;;;19.13;100.00;100235.25;4804358;29;20751;-78
2022/05/09 06:34:02;;;;;;;11.93;10.97;;;;;;;19.35;100.00;100235.97;4819637;29;20198;-78
2022/05/09 06:36:35;;;;;;;12.00;10.97;;;;;;;19.25;100.00;100240.50;4803812;29;20193;-78
2022/05/09 06:39:03;;;;;;;11.67;10.67;;;;;;;19.10;100.00;100234.94;4819669;29;20305;-79
2022/05/09 06:41:30;;;;;;;11.30;10.40;;;;;;;19.34;100.00;100241.63;4820234;29;20190;-78
2022/05/09 06:43:57;;;;;;;10.97;9.97;;;;;;;19.58;100.00;100242.09;4792660;29;20236;-79
2022/05/09 06:46:24;;;;;;;11.03;10.03;;;;;;;19.58;100.00;100245.63;4820163;29;20333;-80
2022/05/09 06:48:51;;;;;;;10.33;9.53;;;;;;;19.91;100.00;100246.31;4804235;29;20192;-77
2022/05/09 06:51:20;;;;;;;10.13;9.27;;;;;;;19.70;100.00;100242.69;4820373;29;20191;-78
2022/05/09 06:53:46;;;;;;;9.70;8.90;;;;;;;19.65;100.00;100240.75;4804253;29;20254;-79
2022/05/09 06:56:13;;;;;;;9.17;8.37;;;;;;;19.95;100.00;100241.97;4788989;29;20562;-81
2022/05/09 06:58:40;;;;;;;9.80;8.83;;;;;;;20.18;100.00;100244.25;4819988;29;20254;-80
2022/05/09 07:01:18;;;;;;;10.23;9.23;;;;;;;20.15;100.00;100240.16;4820610;29;20259;-79
2022/05/09 07:03:46;;;;;;;10.93;9.83;;;;;;;19.69;100.00;100243.78;4823150;29;20191;-79
2022/05/09 07:06:13;;;;;;;10.20;9.30;;;;;;;19.71;100.00;100244.31;4823405;29;20274;-81
2022/05/09 07:08:42;;;;;;;10.50;9.43;;;;;;;19.82;100.00;100243.31;4823248;29;20205;-77
2022/05/09 07:11:11;;;;;;;10.27;9.27;;;;;;;19.96;100.00;100236.28;4822862;29;20244;-78
2022/05/09 07:13:43;;;;;;;10.50;9.60;;;;;;;20.23;100.00;100236.09;4822534;29;20243;-78
2022/05/09 07:16:11;;;;;;;10.77;9.87;;;;;;;20.33;100.00;100238.06;4822512;29;20766;-77
2022/05/09 07:18:39;;;;;;;10.57;9.63;;;;;;;20.59;100.00;100243.25;4823245;29;20209;-78
2022/05/09 07:21:07;;;;;;;10.53;9.63;;;;;;;20.16;100.00;100240.94;4821905;29;20294;-78
2022/05/09 07:23:34;;;;;;;11.10;10.00;;;;;;;20.06;100.00;100247.19;4819004;29;20542;-76
2022/05/09 07:26:02;;;;;;;9.97;9.17;;;;;;;20.34;100.00;100247.84;4822612;29;20233;-77
2022/05/09 07:28:30;;;;;;;10.77;9.20;;;;;;;20.35;100.00;100241.31;4822406;29;20207;-77
2022/05/09 07:30:59;;;;;;;9.83;8.87;;;;;;;20.38;100.00;100243.50;4822067;29;20195;-76
2022/05/09 07:33:27;;;;;;;10.60;9.60;;;;;;;20.33;100.00;100238.06;4822373;29;20711;-77
2022/05/09 07:35:54;;;;;;;10.33;9.27;;;;;;;20.14;100.00;100243.97;4822863;29;20218;-77
2022/05/09 07:38:21;;;;;;;9.80;8.90;;;;;;;20.28;100.00;100238.00;4822600;29;20217;-77
2022/05/09 07:40:48;;;;;;;10.13;9.23;;;;;;;20.18;100.00;100239.63;4822839;29;20237;-79
2022/05/09 07:43:18;;;;;;;10.17;9.17;;;;;;;20.40;100.00;100238.59;4822795;29;20687;-79
2022/05/09 07:45:45;;;;;;;10.90;9.93;;;;;;;20.63;100.00;100236.19;4806574;29;20254;-78
2022/05/09 07:48:12;;;;;;;10.40;9.40;;;;;;;20.52;100.00;100241.91;4806510;29;20308;-79
2022/05/09 07:50:40;;;;;;;10.20;9.20;;;;;;;20.63;100.00;100238.91;4805725;29;20227;-78
2022/05/09 07:53:12;;;;;;;11.10;10.10;;;;;;;20.60;100.00;100239.47;4822264;29;20193;-78
2022/05/09 07:55:41;;;;;;;10.10;9.07;;;;;;;20.70;100.00;100244.09;4822657;29;20188;-78
2022/05/09 07:58:09;;;;;;;10.40;9.40;;;;;;;20.90;100.00;100238.63;4822313;29;20206;-79
2022/05/09 08:00:37;;;;;;;10.93;9.77;;;;;;;20.99;100.00;100244.38;4821855;29;20251;-78
2022/05/09 08:03:05;;;;;;;11.20;10.07;;;;;;;20.84;100.00;100236.19;4821817;29;20194;-78
2022/05/09 08:05:34;;;;;;;10.90;9.90;;;;;;;20.68;100.00;100251.72;4806325;29;20196;-78
2022/05/09 08:08:01;;;;;;;9.93;9.00;;;;;;;20.60;100.00;100244.91;4822245;29;20936;-80
2022/05/09 08:10:29;;;;;;;11.50;9.83;;;;;;;20.40;100.00;100238.59;4822220;29;20200;-79
2022/05/09 08:12:58;;;;;;;11.47;10.23;;;;;;;20.57;100.00;100229.13;4821130;29;20625;-78
2022/05/09 08:15:26;;;;;;;11.00;9.93;;;;;;;20.40;100.00;100236.69;4822168;29;20248;-78
2022/05/09 08:17:53;;;;;;;11.13;10.03;;;;;;;20.48;100.00;100238.88;4822246;29;20200;-78
2022/05/09 08:20:20;;;;;;;11.20;10.10;;;;;;;20.62;100.00;100240.00;4822228;29;20188;-79
2022/05/09 08:22:47;;;;;;;11.63;10.50;;;;;;;20.62;100.00;100240.00;4822338;29;20232;-79
2022/05/09 08:25:15;;;;;;;11.73;10.70;;;;;;;20.72;100.00;100239.19;4805831;29;20216;-82
2022/05/09 08:27:42;;;;;;;11.70;10.50;;;;;;;20.03;100.00;100242.28;4820980;29;20268;-79
2022/05/09 08:30:10;;;;;;;10.77;9.87;;;;;;;20.14;100.00;100243.13;4821685;29;20630;-79
2022/05/09 08:32:42;;;;;;;11.13;10.03;;;;;;;20.38;100.00;100244.34;4821998;29;20540;-78
2022/05/09 08:35:09;;;;;;;11.17;10.03;;;;;;;20.27;100.00;100239.91;4822014;29;20195;-79
2022/05/09 08:37:36;;;;;;;11.10;10.10;;;;;;;20.15;100.00;100244.78;4805226;29;20228;-78
2022/05/09 08:40:04;;;;;;;11.73;10.53;;;;;;;19.99;100.00;100241.19;4821342;29;20706;-78
2022/05/09 08:42:40;;;;;;;10.60;9.70;;;;;;;20.12;100.00;100237.13;4821355;29;20315;-78
2022/05/09 08:45:26;;;;;;;10.80;9.70;;;;;;;20.55;100.00;100238.63;4821826;29;20241;-78
2022/05/09 08:48:11;;;;;;;10.97;9.87;;;;;;;20.21;100.00;100236.34;4790779;29;20712;-78
2022/05/09 08:50:50;;;;;;;10.47;9.47;;;;;;;20.35;100.00;100239.41;4805167;29;20199;-78
2022/05/09 08:53:25;;;;;;;10.40;9.33;;;;;;;20.43;100.00;100238.91;4804739;29;20225;-78
2022/05/09 08:55:54;;;;;;;10.40;9.30;;;;;;;20.61;100.00;100234.84;4804999;29;20191;-78
2022/05/09 08:58:40;;;;;;;8.97;8.17;;;;;;;20.80;100.00;100235.94;4789598;29;20254;-78
2022/05/09 09:01:15;;;;;;;9.90;9.03;;;;;;;20.85;100.00;100235.13;4804599;29;20209;-78
2022/05/09 09:03:48;;;;;;;10.40;9.43;;;;;;;20.56;100.00;100245.72;4804180;29;20190;-78
2022/05/09 09:06:52;;;;;;;10.60;9.60;;;;;;;20.55;100.00;100235.91;4821443;29;20192;-78
2022/05/09 09:09:38;;;;;;;10.20;9.10;;;;;;;20.76;100.00;100240.31;4814806;29;20371;-79
2022/05/09 09:12:27;;;;;;;10.30;9.40;;;;;;;20.91;100.00;100236.72;4801977;29;20820;-78
2022/05/09 09:15:32;;;;;;;10.43;9.53;;;;;;;20.80;100.00;100249.56;4802127;29;20296;-77
2022/05/09 09:18:20;;;;;;;10.70;9.60;;;;;;;21.21;100.00;100242.22;4802825;29;20215;-78
2022/05/09 09:21:17;;;;;;;10.17;9.23;;;;;;;21.41;100.00;100249.53;4802806;29;20649;-78
2022/05/09 09:23:47;;;;;;;10.60;9.70;;;;;;;21.42;99.32;100238.34;4771750;29;20241;-78
2022/05/09 09:26:40;;;;;;;10.03;9.10;;;;;;;21.53;100.00;100230.97;4786208;29;20649;-77
2022/05/09 09:29:18;;;;;;;10.30;9.23;;;;;;;21.58;100.00;100238.31;4801931;29;20212;-78
2022/05/09 09:31:55;;;;;;;10.37;9.40;;;;;;;21.40;98.47;100245.19;4802408;29;20219;-77
2022/05/09 09:34:29;;;;;;;10.60;9.50;;;;;;;21.20;100.00;100237.84;4786240;29;20272;-77
2022/05/09 09:37:11;;;;;;;10.90;9.97;;;;;;;21.12;100.00;100237.56;4786718;29;20218;-76
2022/05/09 09:39:38;;;;;;;9.77;8.87;;;;;;;21.26;100.00;100233.22;4785808;29;20210;-76
2022/05/09 09:42:06;;;;;;;10.97;9.17;;;;;;;21.34;100.00;100227.19;4807768;29;20225;-77
2022/05/09 09:44:36;;;;;;;10.17;9.07;;;;;;;21.51;100.00;100233.13;4805696;29;20227;-77
2022/05/09 09:47:32;;;;;;;9.33;8.43;;;;;;;21.53;97.72;100236.41;4804427;29;20239;-79
2022/05/09 09:50:22;;;;;;;9.90;9.00;;;;;;;20.97;93.62;100228.31;4817239;29;20265;-78
2022/05/09 09:52:52;;;;;;;9.47;8.57;;;;;;;21.22;96.66;100232.94;4822225;29;20233;-77
2022/05/09 09:55:29;;;;;;;10.37;9.37;;;;;;;21.26;97.28;100225.03;4839071;29;20180;-78
2022/05/09 09:57:59;;;;;;;10.97;10.07;;;;;;;21.10;99.24;100233.19;4838564;29;20219;-78
2022/05/09 10:00:34;;;;;;;10.63;9.57;;;;;;;21.19;100.00;100230.75;4822285;29;20299;-78
2022/05/09 10:03:28;;;;;;;9.97;9.07;;;;;;;21.60;97.81;100222.50;4812407;29;20196;-78
2022/05/09 10:05:56;;;;;;;9.67;8.67;;;;;;;21.78;96.07;100219.16;4804721;29;20221;-78
2022/05/09 10:08:38;;;;;;;9.97;9.07;;;;;;;21.90;93.73;100216.91;4820442;29;20292;-78
2022/05/09 10:11:08;;;;;;;9.73;8.83;;;;;;;21.77;94.00;100215.63;4804711;29;20241;-78
2022/05/09 10:13:40;;;;;;;8.87;7.70;;;;;;;21.80;95.23;100222.41;4818643;29;20886;-78
2022/05/09 10:16:11;;;;;;;7.60;7.00;;;;;;;21.97;89.48;100219.38;4818968;29;20219;-78
2022/05/09 10:18:42;;;;;;;6.77;6.27;;;;;;;22.00;80.18;100210.63;4819602;29;20217;-78
2022/05/09 10:27:22;;;;;;;8.90;8.10;;;;;;;22.20;90.65;100208.63;4820033;29;20180;-78
2022/05/09 10:29:56;;;;;;;7.93;7.33;;;;;;;22.48;85.78;100207.06;4820191;29;20573;-77
2022/05/09 10:32:48;;;;;;;8.60;7.80;;;;;;;22.58;83.02;100201.53;4803768;29;20526;-78
2022/05/09 10:35:21;;;;;;;8.90;7.93;;;;;;;22.77;82.86;100193.47;4802366;29;20182;-79
2022/05/09 10:38:02;;;;;;;8.70;7.87;;;;;;;22.57;85.00;100188.97;4821727;29;20254;-79
2022/05/09 10:40:37;;;;;;;9.13;8.23;;;;;;;22.53;84.84;100193.38;4807066;29;20281;-78
2022/05/09 10:43:24;;;;;;;8.47;7.67;;;;;;;22.40;92.98;100183.91;4807294;29;20190;-79
2022/05/09 10:45:52;;;;;;;6.63;6.00;;;;;;;22.55;91.47;100184.88;4822905;29;20257;-79
2022/05/09 10:48:22;;;;;;;6.63;5.80;;;;;;;22.64;76.92;100192.19;4805761;29;20197;-78
2022/05/09 10:51:11;;;;;;;7.07;6.20;;;;;;;22.83;82.46;100179.50;4829311;29;20284;-78
2022/05/09 10:54:15;;;;;;;6.60;6.00;;;;;;;23.15;74.97;100167.16;4837495;29;20726;-79
2022/05/09 10:56:57;;;;;;;7.05;6.25;;;;;;;23.17;75.87;100168.50;4825640;29;20236;-77
2022/05/09 10:59:30;;;;;;;6.80;6.10;;;;;;;23.22;77.75;100165.72;4825040;29;20355;-78
2022/05/09 11:02:04;;;;;;;5.93;5.23;;;;;;;23.29;74.70;100162.63;4838774;29;20202;-79
2022/05/09 11:04:34;;;;;;;6.10;5.50;;;;;;;23.11;69.45;100153.25;4822873;29;20196;-79
2022/05/09 11:07:32;;;;;;;5.83;5.43;;;;;;;23.29;67.86;100154.41;4792396;29;20233;-79
2022/05/09 11:10:22;;;;;;;6.50;5.78;;;;;;;23.40;65.16;100150.47;4823282;29;20650;-78
2022/05/09 11:13:06;;;;;;;5.85;5.20;;;;;;;23.56;67.55;100149.19;4821646;29;20188;-77
2022/05/09 11:15:45;;;;;;;7.32;6.50;;;;;;;23.37;67.34;100131.13;4821243;29;20237;-78
2022/05/09 11:18:37;;;;;;;7.45;6.53;;;;;;;23.68;76.60;100138.66;4822804;29;20186;-78
2022/05/09 11:21:10;;;;;;;8.25;7.45;;;;;;;23.97;69.05;100137.72;4803322;29;20247;-79
2022/05/09 11:23:55;;;;;;;8.65;6.97;;;;;;;23.76;64.42;100136.38;4802791;29;20702;-78
2022/05/09 11:26:36;;;;;;;7.30;6.63;;;;;;;23.75;69.50;100137.50;4802792;29;20187;-78
2022/05/09 11:29:06;;;;;;;7.55;6.75;;;;;;;23.72;67.86;100127.13;4825050;29;20512;-78
2022/05/09 11:31:42;;;;;;;7.18;6.47;;;;;;;23.99;74.56;100130.84;4789366;29;20721;-78
2022/05/09 11:34:59;;;;;;;7.10;6.40;;;;;;;23.83;67.57;100126.72;4824227;29;20197;-78
2022/05/09 11:37:32;;;;;;;7.13;6.43;;;;;;;24.03;67.67;100118.19;4810035;29;20642;-78